sensor_id;sensor_type;location;lat;lon;timestamp;pressure;altitude;pressure_sealevel;temperature;humidity
70815;BME280;58428;49.478;10.986;2023-05-25T00:01:42;98926.75;;;10.59;100.00
70815;BME280;58428;49.478;10.986;2023-05-25T00:04:08;98924.97;;;10.55;100.00
70815;BME280;58428;49.478;10.986;2023-05-25T00:06:35;98920.97;;;10.52;100.00
70815;BME280;58428;49.478;10.986;2023-05-25T00:09:06;98917.47;;;10.43;100.00
70815;BME280;58428;49.478;10.986;2023-05-25T00:11:32;98909.34;;;10.43;100.00
70815;BME280;58428;49.478;10.986;2023-05-25T00:13:58;98910.44;;;10.42;100.00
70815;BME280;58428;49.478;10.986;2023-05-25T00:16:23;98912.00;;;10.35;100.00
70815;BME280;58428;49.478;10.986;2023-05-25T00:18:49;98910.44;;;10.34;100.00
70815;BME280;58428;49.478;10.986;2023-05-25T00:21:15;98914.03;;;10.29;100.00
70815;BME280;58428;49.478;10.986;2023-05-25T00:23:42;98906.88;;;10.25;100.00
70815;BME280;58428;49.478;10.986;2023-05-25T00:26:08;98907.66;;;10.26;100.00
70815;BME280;58428;49.478;10.986;2023-05-25T00:28:33;98911.00;;;10.23;100.00
70815;BME280;58428;49.478;10.986;2023-05-25T00:30:59;98913.22;;;10.21;100.00
70815;BME280;58428;49.478;10.986;2023-05-25T00:33:24;98910.22;;;10.22;100.00
70815;BME280;58428;49.478;10.986;2023-05-25T00:35:49;98907.16;;;10.15;100.00
70815;BME280;58428;49.478;10.986;2023-05-25T00:38:18;98908.09;;;10.11;100.00
70815;BME280;58428;49.478;10.986;2023-05-25T00:40:45;98905.22;;;10.07;100.00
70815;BME280;58428;49.478;10.986;2023-05-25T00:43:12;98900.75;;;10.03;100.00
70815;BME280;58428;49.478;10.986;2023-05-25T00:45:38;98901.97;;;9.97;100.00
70815;BME280;58428;49.478;10.986;2023-05-25T00:48:04;98904.50;;;9.93;100.00
70815;BME280;58428;49.478;10.986;2023-05-25T00:50:41;98901.31;;;9.92;100.00
70815;BME280;58428;49.478;10.986;2023-05-25T00:53:08;98905.28;;;9.94;100.00
70815;BME280;58428;49.478;10.986;2023-05-25T00:58:21;98899.03;;;9.85;100.00
70815;BME280;58428;49.478;10.986;2023-05-25T01:01:00;98892.97;;;9.88;100.00
70815;BME280;58428;49.478;10.986;2023-05-25T01:03:30;98905.53;;;9.84;100.00
70815;BME280;58428;49.478;10.986;2023-05-25T01:06:03;98906.75;;;9.78;100.00
70815;BME280;58428;49.478;10.986;2023-05-25T01:08:33;98908.19;;;9.76;100.00
70815;BME280;58428;49.478;10.986;2023-05-25T01:11:02;98914.47;;;9.71;100.00
70815;BME280;58428;49.478;10.986;2023-05-25T01:13:27;98908.91;;;9.68;100.00
70815;BME280;58428;49.478;10.986;2023-05-25T01:15:53;98901.59;;;9.68;100.00
70815;BME280;58428;49.478;10.986;2023-05-25T01:18:19;98900.94;;;9.63;100.00
70815;BME280;58428;49.478;10.986;2023-05-25T01:23:25;98905.06;;;9.60;100.00
70815;BME280;58428;49.478;10.986;2023-05-25T01:25:54;98900.88;;;9.54;100.00
70815;BME280;58428;49.478;10.986;2023-05-25T01:28:34;98908.78;;;9.51;100.00
70815;BME280;58428;49.478;10.986;2023-05-25T01:31:03;98904.81;;;9.49;100.00
70815;BME280;58428;49.478;10.986;2023-05-25T01:33:29;98911.13;;;9.44;100.00
70815;BME280;58428;49.478;10.986;2023-05-25T01:35:57;98908.53;;;9.39;100.00
70815;BME280;58428;49.478;10.986;2023-05-25T01:38:24;98910.88;;;9.32;100.00
70815;BME280;58428;49.478;10.986;2023-05-25T01:40:50;98906.25;;;9.33;100.00
70815;BME280;58428;49.478;10.986;2023-05-25T01:43:16;98906.09;;;9.29;100.00
70815;BME280;58428;49.478;10.986;2023-05-25T01:45:42;98906.19;;;9.24;100.00
70815;BME280;58428;49.478;10.986;2023-05-25T01:48:31;98911.28;;;9.26;100.00
70815;BME280;58428;49.478;10.986;2023-05-25T01:51:08;98912.22;;;9.21;100.00
70815;BME280;58428;49.478;10.986;2023-05-25T01:53:57;98912.13;;;9.13;100.00
70815;BME280;58428;49.478;10.986;2023-05-25T01:56:29;98916.13;;;9.16;100.00
70815;BME280;58428;49.478;10.986;2023-05-25T01:58:56;98911.22;;;9.18;100.00
70815;BME280;58428;49.478;10.986;2023-05-25T02:01:23;98909.19;;;9.23;100.00
70815;BME280;58428;49.478;10.986;2023-05-25T02:03:50;98913.78;;;9.22;100.00
70815;BME280;58428;49.478;10.986;2023-05-25T02:06:16;98919.91;;;9.15;100.00
70815;BME280;58428;49.478;10.986;2023-05-25T02:08:42;98919.91;;;9.15;100.00
70815;BME280;58428;49.478;10.986;2023-05-25T02:11:12;98918.75;;;9.07;100.00
70815;BME280;58428;49.478;10.986;2023-05-25T02:13:38;98921.56;;;9.02;100.00
70815;BME280;58428;49.478;10.986;2023-05-25T02:16:03;98919.47;;;8.99;100.00
70815;BME280;58428;49.478;10.986;2023-05-25T02:18:29;98919.47;;;8.99;100.00
70815;BME280;58428;49.478;10.986;2023-05-25T02:20:54;98913.38;;;8.94;100.00
70815;BME280;58428;49.478;10.986;2023-05-25T02:23:20;98914.00;;;8.91;100.00
70815;BME280;58428;49.478;10.986;2023-05-25T02:25:45;98913.50;;;8.89;100.00
70815;BME280;58428;49.478;10.986;2023-05-25T02:28:11;98912.22;;;8.86;100.00
70815;BME280;58428;49.478;10.986;2023-05-25T02:30:37;98912.09;;;8.78;100.00
70815;BME280;58428;49.478;10.986;2023-05-25T02:33:03;98910.81;;;8.76;100.00
70815;BME280;58428;49.478;10.986;2023-05-25T02:35:30;98913.22;;;8.77;100.00
70815;BME280;58428;49.478;10.986;2023-05-25T02:37:55;98912.22;;;8.73;100.00
70815;BME280;58428;49.478;10.986;2023-05-25T02:40:22;98915.22;;;8.72;100.00
70815;BME280;58428;49.478;10.986;2023-05-25T02:42:48;98922.69;;;8.75;100.00
70815;BME280;58428;49.478;10.986;2023-05-25T02:45:13;98925.50;;;8.70;100.00
70815;BME280;58428;49.478;10.986;2023-05-25T02:47:39;98920.69;;;8.67;100.00
70815;BME280;58428;49.478;10.986;2023-05-25T02:50:05;98911.03;;;8.66;100.00
70815;BME280;58428;49.478;10.986;2023-05-25T02:52:31;98919.72;;;8.63;100.00
70815;BME280;58428;49.478;10.986;2023-05-25T02:54:56;98914.16;;;8.59;100.00
70815;BME280;58428;49.478;10.986;2023-05-25T02:57:22;98911.53;;;8.54;100.00
70815;BME280;58428;49.478;10.986;2023-05-25T02:59:48;98912.81;;;8.57;100.00
70815;BME280;58428;49.478;10.986;2023-05-25T03:02:14;98917.34;;;8.61;100.00
70815;BME280;58428;49.478;10.986;2023-05-25T03:04:45;98922.22;;;8.59;100.00
70815;BME280;58428;49.478;10.986;2023-05-25T03:07:11;98914.44;;;8.58;100.00
70815;BME280;58428;49.478;10.986;2023-05-25T03:09:38;98916.13;;;8.54;100.00
70815;BME280;58428;49.478;10.986;2023-05-25T03:12:05;98917.22;;;8.53;100.00
70815;BME280;58428;49.478;10.986;2023-05-25T03:14:32;98921.22;;;8.55;100.00
70815;BME280;58428;49.478;10.986;2023-05-25T03:16:57;98921.69;;;8.57;100.00
70815;BME280;58428;49.478;10.986;2023-05-25T03:19:23;98916.94;;;8.54;100.00
70815;BME280;58428;49.478;10.986;2023-05-25T03:21:49;98918.34;;;8.52;100.00
70815;BME280;58428;49.478;10.986;2023-05-25T03:24:15;98919.72;;;8.49;100.00
70815;BME280;58428;49.478;10.986;2023-05-25T03:26:41;98930.00;;;8.47;100.00
70815;BME280;58428;49.478;10.986;2023-05-25T03:29:06;98931.69;;;8.43;100.00
70815;BME280;58428;49.478;10.986;2023-05-25T03:31:31;98942.19;;;8.45;100.00
70815;BME280;58428;49.478;10.986;2023-05-25T03:33:57;98947.59;;;8.45;100.00
70815;BME280;58428;49.478;10.986;2023-05-25T03:36:22;98947.88;;;8.43;100.00
70815;BME280;58428;49.478;10.986;2023-05-25T03:38:52;98944.31;;;8.48;100.00
70815;BME280;58428;49.478;10.986;2023-05-25T03:41:17;98950.50;;;8.48;100.00
70815;BME280;58428;49.478;10.986;2023-05-25T03:43:42;98955.59;;;8.50;100.00
70815;BME280;58428;49.478;10.986;2023-05-25T03:46:08;98958.56;;;8.48;100.00
70815;BME280;58428;49.478;10.986;2023-05-25T03:48:36;98962.69;;;8.46;100.00
70815;BME280;58428;49.478;10.986;2023-05-25T03:51:01;98965.16;;;8.43;100.00
70815;BME280;58428;49.478;10.986;2023-05-25T03:53:27;98974.03;;;8.43;100.00
70815;BME280;58428;49.478;10.986;2023-05-25T03:55:52;98968.66;;;8.56;100.00
70815;BME280;58428;49.478;10.986;2023-05-25T03:58:21;98971.34;;;8.56;100.00
70815;BME280;58428;49.478;10.986;2023-05-25T04:00:46;98968.88;;;8.73;100.00
70815;BME280;58428;49.478;10.986;2023-05-25T04:03:16;98969.75;;;8.69;100.00
70815;BME280;58428;49.478;10.986;2023-05-25T04:05:42;98968.47;;;8.66;100.00
70815;BME280;58428;49.478;10.986;2023-05-25T04:08:09;98964.78;;;8.62;100.00
70815;BME280;58428;49.478;10.986;2023-05-25T04:10:35;98963.56;;;8.55;100.00
70815;BME280;58428;49.478;10.986;2023-05-25T04:13:06;98972.44;;;8.55;100.00
70815;BME280;58428;49.478;10.986;2023-05-25T04:15:37;98972.94;;;8.57;100.00
70815;BME280;58428;49.478;10.986;2023-05-25T04:18:03;98972.34;;;8.60;100.00
70815;BME280;58428;49.478;10.986;2023-05-25T04:20:29;98977.16;;;8.63;100.00
70815;BME280;58428;49.478;10.986;2023-05-25T04:22:55;98971.38;;;8.70;100.00
70815;BME280;58428;49.478;10.986;2023-05-25T04:25:21;98976.06;;;8.78;100.00
70815;BME280;58428;49.478;10.986;2023-05-25T04:27:47;98973.16;;;8.87;100.00
70815;BME280;58428;49.478;10.986;2023-05-25T04:30:14;98976.84;;;8.91;100.00
70815;BME280;58428;49.478;10.986;2023-05-25T04:32:44;98977.75;;;9.00;100.00
70815;BME280;58428;49.478;10.986;2023-05-25T04:35:10;98981.00;;;9.11;100.00
70815;BME280;58428;49.478;10.986;2023-05-25T04:37:38;98982.78;;;9.28;100.00
70815;BME280;58428;49.478;10.986;2023-05-25T04:40:08;98982.44;;;9.43;100.00
70815;BME280;58428;49.478;10.986;2023-05-25T04:42:39;98979.06;;;9.59;100.00
70815;BME280;58428;49.478;10.986;2023-05-25T04:45:11;98982.22;;;9.75;100.00
70815;BME280;58428;49.478;10.986;2023-05-25T04:47:43;98986.59;;;9.84;100.00
70815;BME280;58428;49.478;10.986;2023-05-25T04:50:11;98988.38;;;9.89;100.00
70815;BME280;58428;49.478;10.986;2023-05-25T04:52:37;98994.03;;;10.00;100.00
70815;BME280;58428;49.478;10.986;2023-05-25T04:55:03;98981.88;;;10.11;100.00
70815;BME280;58428;49.478;10.986;2023-05-25T04:57:30;98989.69;;;10.13;100.00
70815;BME280;58428;49.478;10.986;2023-05-25T04:59:57;98985.56;;;10.15;100.00
70815;BME280;58428;49.478;10.986;2023-05-25T05:02:22;98994.47;;;10.16;100.00
70815;BME280;58428;49.478;10.986;2023-05-25T05:04:50;98989.63;;;10.26;100.00
70815;BME280;58428;49.478;10.986;2023-05-25T05:07:21;98994.75;;;10.36;100.00
70815;BME280;58428;49.478;10.986;2023-05-25T05:09:48;98997.97;;;10.46;100.00
70815;BME280;58428;49.478;10.986;2023-05-25T05:12:14;99002.63;;;10.54;100.00
70815;BME280;58428;49.478;10.986;2023-05-25T05:14:47;99002.19;;;10.61;100.00
70815;BME280;58428;49.478;10.986;2023-05-25T05:17:21;99005.25;;;10.67;100.00
70815;BME280;58428;49.478;10.986;2023-05-25T05:19:49;99002.09;;;10.74;100.00
70815;BME280;58428;49.478;10.986;2023-05-25T05:22:19;99006.72;;;10.82;100.00
70815;BME280;58428;49.478;10.986;2023-05-25T05:24:51;99000.88;;;10.88;100.00
70815;BME280;58428;49.478;10.986;2023-05-25T05:27:22;99000.09;;;10.96;100.00
70815;BME280;58428;49.478;10.986;2023-05-25T05:29:48;99013.03;;;11.07;100.00
70815;BME280;58428;49.478;10.986;2023-05-25T05:32:35;99010.66;;;11.14;100.00
70815;BME280;58428;49.478;10.986;2023-05-25T05:35:00;99010.84;;;11.26;100.00
70815;BME280;58428;49.478;10.986;2023-05-25T05:37:26;99009.28;;;11.34;100.00
70815;BME280;58428;49.478;10.986;2023-05-25T05:39:51;99008.06;;;11.48;100.00
70815;BME280;58428;49.478;10.986;2023-05-25T05:42:21;99007.09;;;11.61;100.00
70815;BME280;58428;49.478;10.986;2023-05-25T05:44:47;99006.47;;;11.72;100.00
70815;BME280;58428;49.478;10.986;2023-05-25T05:47:13;99011.75;;;11.85;100.00
70815;BME280;58428;49.478;10.986;2023-05-25T05:49:38;99010.63;;;11.95;100.00
70815;BME280;58428;49.478;10.986;2023-05-25T05:52:04;99010.59;;;12.03;100.00
70815;BME280;58428;49.478;10.986;2023-05-25T05:54:29;99013.94;;;12.17;100.00
70815;BME280;58428;49.478;10.986;2023-05-25T05:56:56;99012.19;;;12.29;100.00
70815;BME280;58428;49.478;10.986;2023-05-25T05:59:21;99018.84;;;12.40;100.00
70815;BME280;58428;49.478;10.986;2023-05-25T06:01:47;99001.25;;;12.46;100.00
70815;BME280;58428;49.478;10.986;2023-05-25T06:04:14;99005.88;;;12.54;100.00
70815;BME280;58428;49.478;10.986;2023-05-25T06:06:43;99015.91;;;12.62;100.00
70815;BME280;58428;49.478;10.986;2023-05-25T06:09:09;99007.44;;;12.72;100.00
70815;BME280;58428;49.478;10.986;2023-05-25T06:11:35;99002.16;;;12.84;100.00
70815;BME280;58428;49.478;10.986;2023-05-25T06:14:05;99002.88;;;12.92;100.00
70815;BME280;58428;49.478;10.986;2023-05-25T06:16:33;98998.69;;;13.03;100.00
70815;BME280;58428;49.478;10.986;2023-05-25T06:18:58;98998.13;;;13.18;100.00
70815;BME280;58428;49.478;10.986;2023-05-25T06:21:24;98990.53;;;13.32;100.00
70815;BME280;58428;49.478;10.986;2023-05-25T06:23:49;98998.44;;;13.45;100.00
70815;BME280;58428;49.478;10.986;2023-05-25T06:26:15;98995.72;;;13.65;100.00
70815;BME280;58428;49.478;10.986;2023-05-25T06:28:40;98995.78;;;13.77;100.00
70815;BME280;58428;49.478;10.986;2023-05-25T06:31:07;98992.94;;;13.94;100.00
70815;BME280;58428;49.478;10.986;2023-05-25T06:33:32;99001.09;;;13.94;100.00
70815;BME280;58428;49.478;10.986;2023-05-25T06:35:58;99007.63;;;14.01;100.00
70815;BME280;58428;49.478;10.986;2023-05-25T06:38:29;99002.28;;;14.05;100.00
70815;BME280;58428;49.478;10.986;2023-05-25T06:41:00;99006.75;;;14.09;100.00
70815;BME280;58428;49.478;10.986;2023-05-25T06:43:31;99002.69;;;14.15;100.00
70815;BME280;58428;49.478;10.986;2023-05-25T06:45:57;99003.84;;;14.26;100.00
70815;BME280;58428;49.478;10.986;2023-05-25T06:48:29;98997.00;;;14.40;100.00
70815;BME280;58428;49.478;10.986;2023-05-25T06:50:55;98997.47;;;14.54;100.00
70815;BME280;58428;49.478;10.986;2023-05-25T06:53:20;98986.59;;;14.66;100.00
70815;BME280;58428;49.478;10.986;2023-05-25T06:55:46;98993.69;;;14.79;100.00
70815;BME280;58428;49.478;10.986;2023-05-25T06:58:11;98996.88;;;14.93;100.00
70815;BME280;58428;49.478;10.986;2023-05-25T07:00:37;98995.50;;;15.10;100.00
70815;BME280;58428;49.478;10.986;2023-05-25T07:03:02;98992.00;;;15.22;100.00
70815;BME280;58428;49.478;10.986;2023-05-25T07:05:36;98990.53;;;15.24;100.00
70815;BME280;58428;49.478;10.986;2023-05-25T07:08:02;98984.03;;;15.29;100.00
70815;BME280;58428;49.478;10.986;2023-05-25T07:10:29;98982.44;;;15.40;100.00
70815;BME280;58428;49.478;10.986;2023-05-25T07:13:00;98990.28;;;15.53;100.00
70815;BME280;58428;49.478;10.986;2023-05-25T07:15:29;98986.28;;;15.62;100.00
70815;BME280;58428;49.478;10.986;2023-05-25T07:17:54;98985.69;;;15.69;100.00
70815;BME280;58428;49.478;10.986;2023-05-25T07:20:22;98983.38;;;15.82;100.00
70815;BME280;58428;49.478;10.986;2023-05-25T07:22:53;98981.34;;;15.80;100.00
70815;BME280;58428;49.478;10.986;2023-05-25T07:25:28;98977.69;;;15.87;100.00
70815;BME280;58428;49.478;10.986;2023-05-25T07:28:06;98977.63;;;15.99;100.00
70815;BME280;58428;49.478;10.986;2023-05-25T07:30:34;98976.44;;;16.12;100.00
70815;BME280;58428;49.478;10.986;2023-05-25T07:32:59;98973.25;;;16.22;100.00
70815;BME280;58428;49.478;10.986;2023-05-25T07:35:25;98975.47;;;16.32;100.00
70815;BME280;58428;49.478;10.986;2023-05-25T07:38:00;98982.88;;;16.47;100.00
70815;BME280;58428;49.478;10.986;2023-05-25T07:40:26;98979.47;;;16.50;100.00
70815;BME280;58428;49.478;10.986;2023-05-25T07:42:53;98980.97;;;16.47;100.00
70815;BME280;58428;49.478;10.986;2023-05-25T07:45:20;98985.72;;;16.50;100.00
70815;BME280;58428;49.478;10.986;2023-05-25T07:47:57;98986.06;;;16.49;100.00
70815;BME280;58428;49.478;10.986;2023-05-25T07:50:26;98976.41;;;16.51;100.00
70815;BME280;58428;49.478;10.986;2023-05-25T07:52:51;98986.25;;;16.56;100.00
70815;BME280;58428;49.478;10.986;2023-05-25T07:55:20;98986.97;;;16.68;100.00
70815;BME280;58428;49.478;10.986;2023-05-25T07:57:48;98989.00;;;16.71;100.00
70815;BME280;58428;49.478;10.986;2023-05-25T08:00:14;98984.00;;;16.88;100.00
70815;BME280;58428;49.478;10.986;2023-05-25T08:02:39;98987.44;;;17.00;100.00
70815;BME280;58428;49.478;10.986;2023-05-25T08:05:06;98986.28;;;17.17;100.00
70815;BME280;58428;49.478;10.986;2023-05-25T08:07:33;98984.97;;;17.26;100.00
70815;BME280;58428;49.478;10.986;2023-05-25T08:09:59;98990.00;;;17.24;100.00
70815;BME280;58428;49.478;10.986;2023-05-25T08:12:24;98987.63;;;17.23;100.00
70815;BME280;58428;49.478;10.986;2023-05-25T08:14:50;98987.78;;;17.30;100.00
70815;BME280;58428;49.478;10.986;2023-05-25T08:17:15;98989.19;;;17.39;100.00
70815;BME280;58428;49.478;10.986;2023-05-25T08:19:41;98985.03;;;17.45;100.00
70815;BME280;58428;49.478;10.986;2023-05-25T08:22:06;98978.47;;;17.49;100.00
70815;BME280;58428;49.478;10.986;2023-05-25T08:24:31;98979.44;;;17.57;100.00
70815;BME280;58428;49.478;10.986;2023-05-25T08:26:57;98975.69;;;17.65;100.00
70815;BME280;58428;49.478;10.986;2023-05-25T08:29:22;98972.16;;;17.64;100.00
70815;BME280;58428;49.478;10.986;2023-05-25T08:31:48;98973.63;;;17.77;100.00
70815;BME280;58428;49.478;10.986;2023-05-25T08:34:14;98973.13;;;17.90;100.00
70815;BME280;58428;49.478;10.986;2023-05-25T08:36:41;98974.88;;;17.98;100.00
70815;BME280;58428;49.478;10.986;2023-05-25T08:39:06;98973.19;;;17.94;100.00
70815;BME280;58428;49.478;10.986;2023-05-25T08:41:35;98974.50;;;17.81;100.00
70815;BME280;58428;49.478;10.986;2023-05-25T08:44:01;98974.72;;;17.91;100.00
70815;BME280;58428;49.478;10.986;2023-05-25T08:46:30;98975.78;;;18.05;100.00
70815;BME280;58428;49.478;10.986;2023-05-25T08:49:07;98972.50;;;18.15;100.00
70815;BME280;58428;49.478;10.986;2023-05-25T08:51:36;98975.16;;;18.31;100.00
70815;BME280;58428;49.478;10.986;2023-05-25T08:54:11;98983.97;;;18.40;100.00
70815;BME280;58428;49.478;10.986;2023-05-25T08:57:01;98977.53;;;18.51;100.00
70815;BME280;58428;49.478;10.986;2023-05-25T09:02:01;98984.13;;;18.69;99.77
70815;BME280;58428;49.478;10.986;2023-05-25T09:04:33;98979.63;;;18.80;100.00
70815;BME280;58428;49.478;10.986;2023-05-25T09:06:58;98981.00;;;18.92;99.32
70815;BME280;58428;49.478;10.986;2023-05-25T09:09:25;98979.63;;;19.02;99.85
70815;BME280;58428;49.478;10.986;2023-05-25T09:11:51;98983.34;;;19.13;97.48
70815;BME280;58428;49.478;10.986;2023-05-25T09:14:19;98981.88;;;19.18;95.60
70815;BME280;58428;49.478;10.986;2023-05-25T09:16:49;98987.88;;;19.24;94.85
70815;BME280;58428;49.478;10.986;2023-05-25T09:19:14;98990.34;;;19.10;92.63
70815;BME280;58428;49.478;10.986;2023-05-25T09:21:40;98987.16;;;19.05;94.81
70815;BME280;58428;49.478;10.986;2023-05-25T09:24:06;98984.94;;;19.14;94.62
70815;BME280;58428;49.478;10.986;2023-05-25T09:26:33;98987.03;;;19.23;95.95
70815;BME280;58428;49.478;10.986;2023-05-25T09:28:58;98981.31;;;19.32;93.84
70815;BME280;58428;49.478;10.986;2023-05-25T09:31:25;98990.44;;;19.39;94.31
70815;BME280;58428;49.478;10.986;2023-05-25T09:33:50;98990.28;;;19.29;92.15
70815;BME280;58428;49.478;10.986;2023-05-25T09:36:20;98982.78;;;19.26;91.97
70815;BME280;58428;49.478;10.986;2023-05-25T09:38:47;98986.19;;;19.42;93.81
70815;BME280;58428;49.478;10.986;2023-05-25T09:41:13;98983.50;;;19.45;93.32
70815;BME280;58428;49.478;10.986;2023-05-25T09:43:38;98981.38;;;19.61;96.16
70815;BME280;58428;49.478;10.986;2023-05-25T09:46:04;98972.72;;;19.59;92.87
70815;BME280;58428;49.478;10.986;2023-05-25T09:48:30;98976.75;;;19.68;93.41
70815;BME280;58428;49.478;10.986;2023-05-25T09:50:55;98981.84;;;19.92;95.40
70815;BME280;58428;49.478;10.986;2023-05-25T09:53:22;98978.06;;;20.03;92.36
70815;BME280;58428;49.478;10.986;2023-05-25T09:55:48;98981.91;;;19.99;92.27
70815;BME280;58428;49.478;10.986;2023-05-25T09:58:14;98975.69;;;20.02;91.33
70815;BME280;58428;49.478;10.986;2023-05-25T10:00:40;98978.50;;;20.09;90.98
70815;BME280;58428;49.478;10.986;2023-05-25T10:03:05;98974.97;;;20.08;90.77
70815;BME280;58428;49.478;10.986;2023-05-25T10:05:32;98972.75;;;20.17;91.87
70815;BME280;58428;49.478;10.986;2023-05-25T10:07:57;98981.56;;;20.33;90.66
70815;BME280;58428;49.478;10.986;2023-05-25T10:10:23;98976.97;;;20.44;90.32
70815;BME280;58428;49.478;10.986;2023-05-25T10:12:51;98978.25;;;20.53;88.23
70815;BME280;58428;49.478;10.986;2023-05-25T10:15:17;98976.81;;;20.63;89.25
70815;BME280;58428;49.478;10.986;2023-05-25T10:17:52;98978.91;;;20.76;89.49
70815;BME280;58428;49.478;10.986;2023-05-25T10:20:21;98976.56;;;20.78;88.68
70815;BME280;58428;49.478;10.986;2023-05-25T10:22:52;98983.75;;;20.89;88.26
70815;BME280;58428;49.478;10.986;2023-05-25T10:28:07;98974.34;;;20.94;86.61
70815;BME280;58428;49.478;10.986;2023-05-25T10:30:33;98977.59;;;21.03;87.06
70815;BME280;58428;49.478;10.986;2023-05-25T10:33:02;98978.00;;;21.04;87.65
70815;BME280;58428;49.478;10.986;2023-05-25T10:35:28;98977.63;;;21.06;85.31
70815;BME280;58428;49.478;10.986;2023-05-25T10:37:55;98976.41;;;21.03;86.29
70815;BME280;58428;49.478;10.986;2023-05-25T10:40:22;98977.09;;;20.94;85.28
70815;BME280;58428;49.478;10.986;2023-05-25T10:42:50;98964.66;;;21.06;87.77
70815;BME280;58428;49.478;10.986;2023-05-25T10:45:16;98969.94;;;21.25;87.14
70815;BME280;58428;49.478;10.986;2023-05-25T10:47:42;98968.00;;;21.29;83.89
70815;BME280;58428;49.478;10.986;2023-05-25T10:52:56;98962.59;;;21.40;82.01
70815;BME280;58428;49.478;10.986;2023-05-25T10:55:24;98958.31;;;21.49;84.62
70815;BME280;58428;49.478;10.986;2023-05-25T10:58:16;98958.28;;;21.45;80.16
70815;BME280;58428;49.478;10.986;2023-05-25T11:11:15;98959.28;;;21.74;81.45
70815;BME280;58428;49.478;10.986;2023-05-25T11:13:48;98952.25;;;21.86;81.83
70815;BME280;58428;49.478;10.986;2023-05-25T11:19:02;98956.09;;;21.72;81.58
70815;BME280;58428;49.478;10.986;2023-05-25T11:24:05;98957.38;;;21.95;80.52
70815;BME280;58428;49.478;10.986;2023-05-25T11:26:35;98950.34;;;22.04;79.43
70815;BME280;58428;49.478;10.986;2023-05-25T11:29:11;98939.75;;;22.10;78.09
70815;BME280;58428;49.478;10.986;2023-05-25T11:31:42;98943.75;;;22.19;77.90
70815;BME280;58428;49.478;10.986;2023-05-25T11:34:07;98945.34;;;22.27;79.50
70815;BME280;58428;49.478;10.986;2023-05-25T11:36:37;98952.47;;;22.28;76.02
70815;BME280;58428;49.478;10.986;2023-05-25T11:39:06;98947.22;;;22.06;76.21
70815;BME280;58428;49.478;10.986;2023-05-25T11:41:32;98938.25;;;22.19;77.60
70815;BME280;58428;49.478;10.986;2023-05-25T11:44:08;98930.81;;;22.37;76.41
70815;BME280;58428;49.478;10.986;2023-05-25T11:46:33;98939.88;;;22.37;75.81
70815;BME280;58428;49.478;10.986;2023-05-25T11:49:02;98938.69;;;22.35;75.56
70815;BME280;58428;49.478;10.986;2023-05-25T11:51:29;98934.75;;;22.43;77.46
70815;BME280;58428;49.478;10.986;2023-05-25T11:53:55;98933.63;;;22.57;77.27
70815;BME280;58428;49.478;10.986;2023-05-25T11:56:21;98931.25;;;22.59;75.25
70815;BME280;58428;49.478;10.986;2023-05-25T11:58:49;98933.19;;;22.42;72.60
70815;BME280;58428;49.478;10.986;2023-05-25T12:01:24;98939.91;;;22.54;76.10
70815;BME280;58428;49.478;10.986;2023-05-25T12:03:52;98933.22;;;22.62;74.82
70815;BME280;58428;49.478;10.986;2023-05-25T12:06:29;98937.16;;;22.58;72.00
70815;BME280;58428;49.478;10.986;2023-05-25T12:08:57;98939.53;;;22.59;72.45
70815;BME280;58428;49.478;10.986;2023-05-25T12:11:34;98936.00;;;22.69;72.22
70815;BME280;58428;49.478;10.986;2023-05-25T12:14:03;98926.13;;;22.58;71.56
70815;BME280;58428;49.478;10.986;2023-05-25T12:16:31;98925.00;;;22.76;73.60
70815;BME280;58428;49.478;10.986;2023-05-25T12:18:59;98918.31;;;22.94;72.96
70815;BME280;58428;49.478;10.986;2023-05-25T12:21:27;98917.91;;;23.10;72.62
70815;BME280;58428;49.478;10.986;2023-05-25T12:23:53;98910.78;;;23.26;72.06
70815;BME280;58428;49.478;10.986;2023-05-25T12:26:19;98916.31;;;23.29;70.31
70815;BME280;58428;49.478;10.986;2023-05-25T12:29:07;98919.91;;;23.09;68.56
70815;BME280;58428;49.478;10.986;2023-05-25T12:31:36;98907.25;;;22.88;72.80
70815;BME280;58428;49.478;10.986;2023-05-25T12:34:15;98895.44;;;22.97;74.79
70815;BME280;58428;49.478;10.986;2023-05-25T12:36:48;98901.38;;;22.96;73.71
70815;BME280;58428;49.478;10.986;2023-05-25T12:41:51;98883.19;;;23.23;73.62
70815;BME280;58428;49.478;10.986;2023-05-25T12:44:31;98895.41;;;23.32;73.95
70815;BME280;58428;49.478;10.986;2023-05-25T12:47:12;98892.59;;;23.46;71.75
70815;BME280;58428;49.478;10.986;2023-05-25T12:49:38;98890.22;;;23.51;71.30
70815;BME280;58428;49.478;10.986;2023-05-25T12:52:04;98892.25;;;23.58;71.98
70815;BME280;58428;49.478;10.986;2023-05-25T12:54:43;98890.66;;;23.50;71.02
70815;BME280;58428;49.478;10.986;2023-05-25T12:57:17;98884.34;;;23.39;71.23
70815;BME280;58428;49.478;10.986;2023-05-25T12:59:44;98882.78;;;23.31;72.32
70815;BME280;58428;49.478;10.986;2023-05-25T13:02:11;98880.41;;;23.33;72.16
70815;BME280;58428;49.478;10.986;2023-05-25T13:04:41;98881.16;;;23.44;71.72
70815;BME280;58428;49.478;10.986;2023-05-25T13:07:07;98883.56;;;23.35;71.56
70815;BME280;58428;49.478;10.986;2023-05-25T13:09:34;98870.16;;;23.37;73.29
70815;BME280;58428;49.478;10.986;2023-05-25T13:12:00;98872.91;;;23.30;72.15
70815;BME280;58428;49.478;10.986;2023-05-25T13:14:28;98871.34;;;23.26;72.41
70815;BME280;58428;49.478;10.986;2023-05-25T13:16:55;98867.75;;;23.49;73.42
70815;BME280;58428;49.478;10.986;2023-05-25T13:19:22;98868.88;;;23.69;73.62
70815;BME280;58428;49.478;10.986;2023-05-25T13:21:48;98879.53;;;23.77;70.81